Kaitaia, New Zealand
Current Conditions -  °F | °C
As of 2:30 AM on Monday 22 Dec 2014 (Local Time) from NZAA Reporting Station
Few Clouds Few Clouds  
Wind Chill: 63°   Ceiling: Unl
Heat Index: 63°   Visibility: 6mi
Dew Point: 59°   Wind: 8mph
Humidity: 88%   Direction: 240°WSW
Pressure: 30.03"   Gusts: NA
Location:  35.11°S, 173.26°E
Report Text: NZAA 211330Z AUTO 24007KT 9999 FEW017/// 17/15 Q1017 NOSIG
Loading
Personal Weather Stations






























Interactive Weather Map New forecast layout! Learn more

10-Day Weather Forecast

Advertisements
Track Severe Weather on mobile